sensor_id;sensor_type;location;lat;lon;timestamp;pressure;altitude;pressure_sealevel;temperature;humidity
74561;BME280;62979;55.720;37.606;2022-11-15T00:00:48;100341.03;;;3.61;38.30
74561;BME280;62979;55.720;37.606;2022-11-15T00:03:16;100374.00;;;3.76;38.57
74561;BME280;62979;55.720;37.606;2022-11-15T00:05:43;100375.72;;;3.77;38.89
74561;BME280;62979;55.720;37.606;2022-11-15T00:08:11;100381.78;;;3.76;38.74
74561;BME280;62979;55.720;37.606;2022-11-15T00:10:38;100375.78;;;3.79;38.85
74561;BME280;62979;55.720;37.606;2022-11-15T00:13:07;100374.78;;;3.69;38.45
74561;BME280;62979;55.720;37.606;2022-11-15T00:15:36;100366.06;;;3.64;38.52
74561;BME280;62979;55.720;37.606;2022-11-15T00:18:05;100367.81;;;3.65;38.55
74561;BME280;62979;55.720;37.606;2022-11-15T00:20:33;100366.25;;;3.76;38.92
74561;BME280;62979;55.720;37.606;2022-11-15T00:23:02;100360.28;;;3.82;39.19
74561;BME280;62979;55.720;37.606;2022-11-15T00:25:30;100361.13;;;3.82;38.66
74561;BME280;62979;55.720;37.606;2022-11-15T00:27:57;100357.78;;;3.90;38.65
74561;BME280;62979;55.720;37.606;2022-11-15T00:30:27;100352.63;;;3.90;38.88
74561;BME280;62979;55.720;37.606;2022-11-15T00:32:54;100368.19;;;3.93;38.93
74561;BME280;62979;55.720;37.606;2022-11-15T00:35:22;100350.78;;;3.81;38.86
74561;BME280;62979;55.720;37.606;2022-11-15T00:37:49;100357.69;;;3.80;39.05
74561;BME280;62979;55.720;37.606;2022-11-15T00:40:16;100345.63;;;3.82;38.84
74561;BME280;62979;55.720;37.606;2022-11-15T00:42:43;100349.97;;;3.85;39.45
74561;BME280;62979;55.720;37.606;2022-11-15T00:45:10;100343.94;;;3.84;39.32
74561;BME280;62979;55.720;37.606;2022-11-15T00:47:38;100345.69;;;3.87;38.91
74561;BME280;62979;55.720;37.606;2022-11-15T00:50:05;100342.75;;;3.61;38.33
74561;BME280;62979;55.720;37.606;2022-11-15T00:52:32;100338.75;;;3.22;38.93
74561;BME280;62979;55.720;37.606;2022-11-15T00:55:00;100332.59;;;3.17;39.39
74561;BME280;62979;55.720;37.606;2022-11-15T00:57:27;100331.06;;;3.28;39.20
74561;BME280;62979;55.720;37.606;2022-11-15T00:59:54;100332.75;;;3.26;39.10
74561;BME280;62979;55.720;37.606;2022-11-15T01:02:21;100332.66;;;3.20;38.92
74561;BME280;62979;55.720;37.606;2022-11-15T01:04:50;100331.59;;;3.07;39.65
74561;BME280;62979;55.720;37.606;2022-11-15T01:07:16;100325.63;;;3.10;39.52
74561;BME280;62979;55.720;37.606;2022-11-15T01:09:43;100324.06;;;3.21;39.73
74561;BME280;62979;55.720;37.606;2022-11-15T01:12:10;100327.34;;;3.11;39.86
74561;BME280;62979;55.720;37.606;2022-11-15T01:14:37;100324.91;;;3.21;40.19
74561;BME280;62979;55.720;37.606;2022-11-15T01:17:05;100326.78;;;3.30;39.90
74561;BME280;62979;55.720;37.606;2022-11-15T01:19:32;100323.38;;;3.33;40.04
74561;BME280;62979;55.720;37.606;2022-11-15T01:22:00;100324.38;;;3.42;39.41
74561;BME280;62979;55.720;37.606;2022-11-15T01:24:27;100321.75;;;3.39;39.36
74561;BME280;62979;55.720;37.606;2022-11-15T01:26:54;100320.88;;;3.39;39.48
74561;BME280;62979;55.720;37.606;2022-11-15T01:29:22;100313.09;;;3.37;39.13
74561;BME280;62979;55.720;37.606;2022-11-15T01:31:49;100306.16;;;3.33;39.08
74561;BME280;62979;55.720;37.606;2022-11-15T01:34:16;100292.16;;;3.19;39.13
74561;BME280;62979;55.720;37.606;2022-11-15T01:36:43;100291.31;;;3.20;39.54
74561;BME280;62979;55.720;37.606;2022-11-15T01:39:11;100297.25;;;3.13;39.92
74561;BME280;62979;55.720;37.606;2022-11-15T01:41:38;100300.78;;;3.19;39.78
74561;BME280;62979;55.720;37.606;2022-11-15T01:44:40;100308.22;;;2.98;40.23
74561;BME280;62979;55.720;37.606;2022-11-15T01:47:12;100311.50;;;2.89;40.37
74561;BME280;62979;55.720;37.606;2022-11-15T01:49:52;100303.72;;;2.88;40.70
74561;BME280;62979;55.720;37.606;2022-11-15T01:52:24;100306.94;;;2.74;41.20
74561;BME280;62979;55.720;37.606;2022-11-15T01:54:57;100302.38;;;2.60;41.45
74561;BME280;62979;55.720;37.606;2022-11-15T01:57:30;100298.13;;;2.62;41.76
74561;BME280;62979;55.720;37.606;2022-11-15T01:59:57;100300.50;;;2.49;41.94
74561;BME280;62979;55.720;37.606;2022-11-15T02:02:28;100309.41;;;2.20;43.05
74561;BME280;62979;55.720;37.606;2022-11-15T02:04:55;100302.19;;;2.03;43.23
74561;BME280;62979;55.720;37.606;2022-11-15T02:07:23;100286.25;;;1.80;43.86
74561;BME280;62979;55.720;37.606;2022-11-15T02:09:50;100304.53;;;1.91;43.90
74561;BME280;62979;55.720;37.606;2022-11-15T02:12:21;100307.69;;;1.78;44.01
74561;BME280;62979;55.720;37.606;2022-11-15T02:14:52;100302.88;;;1.95;43.75
74561;BME280;62979;55.720;37.606;2022-11-15T02:17:33;100306.16;;;1.87;43.89
74561;BME280;62979;55.720;37.606;2022-11-15T02:20:37;100303.09;;;2.05;43.69
74561;BME280;62979;55.720;37.606;2022-11-15T02:26:58;100295.94;;;2.36;43.35
74561;BME280;62979;55.720;37.606;2022-11-15T02:33:08;100290.22;;;2.07;43.69
74561;BME280;62979;55.720;37.606;2022-11-15T02:35:52;100294.84;;;2.23;43.40
74561;BME280;62979;55.720;37.606;2022-11-15T02:38:31;100290.13;;;2.02;43.40
74561;BME280;62979;55.720;37.606;2022-11-15T02:41:10;100299.72;;;2.08;43.48
74561;BME280;62979;55.720;37.606;2022-11-15T02:43:44;100276.66;;;1.73;43.64
74561;BME280;62979;55.720;37.606;2022-11-15T02:46:29;100298.97;;;1.71;44.24
74561;BME280;62979;55.720;37.606;2022-11-15T02:49:20;100282.78;;;1.78;43.83
74561;BME280;62979;55.720;37.606;2022-11-15T02:51:50;100285.19;;;1.70;43.65
74561;BME280;62979;55.720;37.606;2022-11-15T02:54:22;100274.72;;;1.61;44.09
74561;BME280;62979;55.720;37.606;2022-11-15T02:56:53;100280.16;;;1.77;43.79
74561;BME280;62979;55.720;37.606;2022-11-15T03:02:41;100278.59;;;1.83;44.11
74561;BME280;62979;55.720;37.606;2022-11-15T03:05:22;100275.78;;;1.73;43.93
74561;BME280;62979;55.720;37.606;2022-11-15T03:08:01;100271.56;;;1.76;44.21
74561;BME280;62979;55.720;37.606;2022-11-15T03:10:42;100271.75;;;1.85;44.11
74561;BME280;62979;55.720;37.606;2022-11-15T03:13:21;100272.63;;;1.87;44.24
74561;BME280;62979;55.720;37.606;2022-11-15T03:15:56;100267.56;;;1.90;44.10
74561;BME280;62979;55.720;37.606;2022-11-15T03:18:33;100266.00;;;1.99;44.27
74561;BME280;62979;55.720;37.606;2022-11-15T03:21:06;100253.13;;;2.00;44.22
74561;BME280;62979;55.720;37.606;2022-11-15T03:23:37;100252.09;;;1.90;44.15
74561;BME280;62979;55.720;37.606;2022-11-15T03:26:08;100249.38;;;1.84;43.97
74561;BME280;62979;55.720;37.606;2022-11-15T03:28:42;100256.19;;;1.81;44.13
74561;BME280;62979;55.720;37.606;2022-11-15T03:31:14;100265.94;;;1.96;44.22
74561;BME280;62979;55.720;37.606;2022-11-15T03:34:19;100263.28;;;1.91;44.20
74561;BME280;62979;55.720;37.606;2022-11-15T03:36:52;100266.13;;;2.06;43.25
74561;BME280;62979;55.720;37.606;2022-11-15T03:39:20;100261.59;;;1.93;43.40
74561;BME280;62979;55.720;37.606;2022-11-15T03:41:51;100268.44;;;1.91;42.73
74561;BME280;62979;55.720;37.606;2022-11-15T03:44:36;100262.97;;;1.76;43.17
74561;BME280;62979;55.720;37.606;2022-11-15T03:47:13;100267.22;;;1.74;43.46
74561;BME280;62979;55.720;37.606;2022-11-15T03:49:50;100242.22;;;1.69;42.72
74561;BME280;62979;55.720;37.606;2022-11-15T03:52:19;100247.66;;;1.83;43.32
74561;BME280;62979;55.720;37.606;2022-11-15T03:54:49;100263.19;;;1.86;42.55
74561;BME280;62979;55.720;37.606;2022-11-15T03:57:19;100254.13;;;1.64;42.86
74561;BME280;62979;55.720;37.606;2022-11-15T03:59:46;100251.22;;;1.47;43.22
74561;BME280;62979;55.720;37.606;2022-11-15T04:02:13;100258.34;;;1.59;42.92
74561;BME280;62979;55.720;37.606;2022-11-15T04:04:40;100251.66;;;1.70;43.02
74561;BME280;62979;55.720;37.606;2022-11-15T04:07:09;100245.78;;;1.76;43.05
74561;BME280;62979;55.720;37.606;2022-11-15T04:09:36;100252.81;;;1.85;42.97
74561;BME280;62979;55.720;37.606;2022-11-15T04:12:24;100251.19;;;1.90;42.88
74561;BME280;62979;55.720;37.606;2022-11-15T04:14:58;100241.72;;;1.89;42.73
74561;BME280;62979;55.720;37.606;2022-11-15T04:17:39;100240.88;;;1.88;42.51
74561;BME280;62979;55.720;37.606;2022-11-15T04:20:10;100242.88;;;2.03;42.50
74561;BME280;62979;55.720;37.606;2022-11-15T04:22:58;100239.09;;;1.86;42.54
74561;BME280;62979;55.720;37.606;2022-11-15T04:25:45;100250.13;;;1.79;42.61
74561;BME280;62979;55.720;37.606;2022-11-15T04:28:15;100242.16;;;1.68;43.07
74561;BME280;62979;55.720;37.606;2022-11-15T04:30:42;100236.84;;;1.60;43.14
74561;BME280;62979;55.720;37.606;2022-11-15T04:33:09;100235.13;;;1.59;43.26
74561;BME280;62979;55.720;37.606;2022-11-15T04:35:36;100236.75;;;1.54;43.81
74561;BME280;62979;55.720;37.606;2022-11-15T04:38:07;100238.44;;;1.54;43.43
74561;BME280;62979;55.720;37.606;2022-11-15T04:40:34;100225.53;;;1.52;43.63
74561;BME280;62979;55.720;37.606;2022-11-15T04:43:01;100230.28;;;1.75;43.88
74561;BME280;62979;55.720;37.606;2022-11-15T04:45:29;100219.25;;;1.82;43.33
74561;BME280;62979;55.720;37.606;2022-11-15T04:47:56;100227.16;;;1.91;43.39
74561;BME280;62979;55.720;37.606;2022-11-15T04:50:23;100216.94;;;1.96;43.20
74561;BME280;62979;55.720;37.606;2022-11-15T04:52:51;100224.53;;;1.88;42.98
74561;BME280;62979;55.720;37.606;2022-11-15T04:55:21;100221.97;;;1.89;43.53
74561;BME280;62979;55.720;37.606;2022-11-15T04:57:48;100218.34;;;1.80;43.52
74561;BME280;62979;55.720;37.606;2022-11-15T05:00:24;100207.06;;;1.75;44.00
74561;BME280;62979;55.720;37.606;2022-11-15T05:02:51;100219.91;;;1.71;43.99
74561;BME280;62979;55.720;37.606;2022-11-15T05:05:35;100222.72;;;1.84;43.84
74561;BME280;62979;55.720;37.606;2022-11-15T05:08:02;100219.91;;;1.71;44.02
74561;BME280;62979;55.720;37.606;2022-11-15T05:10:31;100211.69;;;1.91;43.87
74561;BME280;62979;55.720;37.606;2022-11-15T05:12:58;100208.31;;;1.95;43.64
74561;BME280;62979;55.720;37.606;2022-11-15T05:15:25;100212.69;;;1.99;43.57
74561;BME280;62979;55.720;37.606;2022-11-15T05:17:57;100212.91;;;2.10;43.21
74561;BME280;62979;55.720;37.606;2022-11-15T05:20:25;100217.97;;;2.05;43.38
74561;BME280;62979;55.720;37.606;2022-11-15T05:22:53;100208.16;;;1.86;44.03
74561;BME280;62979;55.720;37.606;2022-11-15T05:25:20;100197.75;;;1.83;43.51
74561;BME280;62979;55.720;37.606;2022-11-15T05:27:49;100222.06;;;1.94;43.70
74561;BME280;62979;55.720;37.606;2022-11-15T05:30:16;100209.28;;;2.02;43.46
74561;BME280;62979;55.720;37.606;2022-11-15T05:32:43;100204.84;;;1.93;43.47
74561;BME280;62979;55.720;37.606;2022-11-15T05:35:14;100187.53;;;1.86;43.60
74561;BME280;62979;55.720;37.606;2022-11-15T05:37:46;100210.13;;;1.99;43.29
74561;BME280;62979;55.720;37.606;2022-11-15T05:40:14;100198.56;;;1.79;43.71
74561;BME280;62979;55.720;37.606;2022-11-15T05:42:42;100209.78;;;1.81;43.71
74561;BME280;62979;55.720;37.606;2022-11-15T05:45:11;100208.88;;;1.80;44.01
74561;BME280;62979;55.720;37.606;2022-11-15T05:47:39;100194.22;;;1.76;43.69
74561;BME280;62979;55.720;37.606;2022-11-15T05:50:07;100195.94;;;1.76;44.10
74561;BME280;62979;55.720;37.606;2022-11-15T05:52:38;100194.31;;;1.81;44.00
74561;BME280;62979;55.720;37.606;2022-11-15T05:55:07;100191.69;;;1.79;43.94
74561;BME280;62979;55.720;37.606;2022-11-15T05:57:36;100189.31;;;1.90;44.13
74561;BME280;62979;55.720;37.606;2022-11-15T06:00:04;100187.03;;;2.05;43.48
74561;BME280;62979;55.720;37.606;2022-11-15T06:02:34;100186.22;;;2.09;43.16
74561;BME280;62979;55.720;37.606;2022-11-15T06:05:01;100180.31;;;2.17;43.25
74561;BME280;62979;55.720;37.606;2022-11-15T06:07:29;100178.63;;;2.17;43.25
74561;BME280;62979;55.720;37.606;2022-11-15T06:09:58;100181.22;;;2.19;43.02
74561;BME280;62979;55.720;37.606;2022-11-15T06:12:25;100179.66;;;2.27;42.99
74561;BME280;62979;55.720;37.606;2022-11-15T06:14:52;100179.72;;;2.31;43.27
74561;BME280;62979;55.720;37.606;2022-11-15T06:17:19;100170.41;;;2.40;43.45
74561;BME280;62979;55.720;37.606;2022-11-15T06:19:47;100143.47;;;2.24;43.12
74561;BME280;62979;55.720;37.606;2022-11-15T06:22:14;100159.25;;;2.42;43.26
74561;BME280;62979;55.720;37.606;2022-11-15T06:24:41;100163.75;;;2.55;42.80
74561;BME280;62979;55.720;37.606;2022-11-15T06:27:10;100145.44;;;2.40;42.77
74561;BME280;62979;55.720;37.606;2022-11-15T06:29:37;100159.25;;;2.44;42.90
74561;BME280;62979;55.720;37.606;2022-11-15T06:32:04;100162.00;;;2.53;43.24
74561;BME280;62979;55.720;37.606;2022-11-15T06:34:31;100161.03;;;2.46;43.30
74561;BME280;62979;55.720;37.606;2022-11-15T06:37:00;100157.25;;;2.26;42.93
74561;BME280;62979;55.720;37.606;2022-11-15T06:39:27;100153.00;;;2.28;43.13
74561;BME280;62979;55.720;37.606;2022-11-15T06:41:54;100151.94;;;2.17;43.19
74561;BME280;62979;55.720;37.606;2022-11-15T06:44:21;100150.22;;;2.16;43.67
74561;BME280;62979;55.720;37.606;2022-11-15T06:46:48;100136.50;;;2.18;43.79
74561;BME280;62979;55.720;37.606;2022-11-15T06:49:15;100136.78;;;2.35;44.03
74561;BME280;62979;55.720;37.606;2022-11-15T06:51:42;100148.19;;;2.49;43.63
74561;BME280;62979;55.720;37.606;2022-11-15T06:54:10;100150.84;;;2.54;42.82
74561;BME280;62979;55.720;37.606;2022-11-15T06:56:37;100138.66;;;2.45;42.92
74561;BME280;62979;55.720;37.606;2022-11-15T06:59:04;100137.16;;;2.60;42.92
74561;BME280;62979;55.720;37.606;2022-11-15T07:01:31;100137.31;;;2.72;42.23
74561;BME280;62979;55.720;37.606;2022-11-15T07:03:58;100125.34;;;2.77;42.13
74561;BME280;62979;55.720;37.606;2022-11-15T07:06:25;100135.72;;;2.80;42.66
74561;BME280;62979;55.720;37.606;2022-11-15T07:08:52;100132.13;;;2.69;42.28
74561;BME280;62979;55.720;37.606;2022-11-15T07:11:20;100123.28;;;2.51;42.44
74561;BME280;62979;55.720;37.606;2022-11-15T07:13:47;100118.06;;;2.50;42.88
74561;BME280;62979;55.720;37.606;2022-11-15T07:16:15;100118.16;;;2.56;42.96
74561;BME280;62979;55.720;37.606;2022-11-15T07:18:42;100114.78;;;2.59;42.98
74561;BME280;62979;55.720;37.606;2022-11-15T07:21:10;100118.31;;;2.67;42.96
74561;BME280;62979;55.720;37.606;2022-11-15T07:23:38;100099.38;;;2.68;42.97
74561;BME280;62979;55.720;37.606;2022-11-15T07:26:06;100109.94;;;2.83;42.58
74561;BME280;62979;55.720;37.606;2022-11-15T07:28:35;100115.84;;;2.74;42.65
74561;BME280;62979;55.720;37.606;2022-11-15T07:31:03;100103.63;;;2.63;42.94
74561;BME280;62979;55.720;37.606;2022-11-15T07:33:30;100108.78;;;2.61;42.92
74561;BME280;62979;55.720;37.606;2022-11-15T07:35:59;100114.78;;;2.59;42.97
74561;BME280;62979;55.720;37.606;2022-11-15T07:38:27;100099.19;;;2.52;43.13
74561;BME280;62979;55.720;37.606;2022-11-15T07:40:56;100095.72;;;2.53;43.25
74561;BME280;62979;55.720;37.606;2022-11-15T07:43:24;100082.84;;;2.55;42.98
74561;BME280;62979;55.720;37.606;2022-11-15T07:45:54;100075.03;;;2.50;42.97
74561;BME280;62979;55.720;37.606;2022-11-15T07:48:22;100085.47;;;2.58;43.19
74561;BME280;62979;55.720;37.606;2022-11-15T07:50:49;100091.81;;;2.78;43.10
74561;BME280;62979;55.720;37.606;2022-11-15T07:53:17;100090.03;;;2.77;42.89
74561;BME280;62979;55.720;37.606;2022-11-15T07:55:44;100079.78;;;2.81;42.82
74561;BME280;62979;55.720;37.606;2022-11-15T07:58:11;100077.13;;;2.77;42.88
74561;BME280;62979;55.720;37.606;2022-11-15T08:00:38;100084.13;;;2.83;45.09
74561;BME280;62979;55.720;37.606;2022-11-15T08:03:08;100081.53;;;2.85;43.01
74561;BME280;62979;55.720;37.606;2022-11-15T08:05:37;100078.19;;;2.90;43.08
74561;BME280;62979;55.720;37.606;2022-11-15T08:08:06;100079.81;;;2.85;43.53
74561;BME280;62979;55.720;37.606;2022-11-15T08:10:35;100076.28;;;2.77;42.79
74561;BME280;62979;55.720;37.606;2022-11-15T08:13:04;100080.66;;;2.84;43.37
74561;BME280;62979;55.720;37.606;2022-11-15T08:15:33;100071.97;;;2.76;43.01
74561;BME280;62979;55.720;37.606;2022-11-15T08:18:03;100076.25;;;2.75;42.86
74561;BME280;62979;55.720;37.606;2022-11-15T08:20:33;100074.50;;;2.71;42.99
74561;BME280;62979;55.720;37.606;2022-11-15T08:23:01;100066.03;;;2.85;42.61
74561;BME280;62979;55.720;37.606;2022-11-15T08:25:32;100068.66;;;2.86;42.34
74561;BME280;62979;55.720;37.606;2022-11-15T08:28:02;100072.94;;;2.87;42.59
74561;BME280;62979;55.720;37.606;2022-11-15T08:30:33;100062.63;;;2.87;42.46
74561;BME280;62979;55.720;37.606;2022-11-15T08:33:02;100050.53;;;2.83;42.67
74561;BME280;62979;55.720;37.606;2022-11-15T08:35:30;100059.25;;;2.91;42.86
74561;BME280;62979;55.720;37.606;2022-11-15T08:37:58;100052.41;;;2.96;42.68
74561;BME280;62979;55.720;37.606;2022-11-15T08:40:25;100057.47;;;2.87;42.47
74561;BME280;62979;55.720;37.606;2022-11-15T08:42:52;100041.00;;;2.79;42.43
74561;BME280;62979;55.720;37.606;2022-11-15T08:45:20;100048.97;;;2.97;42.63
74561;BME280;62979;55.720;37.606;2022-11-15T08:47:47;100018.72;;;2.86;42.57
74561;BME280;62979;55.720;37.606;2022-11-15T08:50:15;100036.13;;;3.04;42.79
74561;BME280;62979;55.720;37.606;2022-11-15T08:52:42;100043.84;;;3.00;42.96
74561;BME280;62979;55.720;37.606;2022-11-15T08:55:10;100042.03;;;2.95;42.84
74561;BME280;62979;55.720;37.606;2022-11-15T08:57:37;100043.84;;;3.02;42.84
74561;BME280;62979;55.720;37.606;2022-11-15T09:00:05;100032.75;;;3.08;42.29
74561;BME280;62979;55.720;37.606;2022-11-15T09:02:33;100044.97;;;3.24;42.26
74561;BME280;62979;55.720;37.606;2022-11-15T09:05:00;100039.84;;;3.27;42.18
74561;BME280;62979;55.720;37.606;2022-11-15T09:07:27;100022.53;;;3.21;41.87
74561;BME280;62979;55.720;37.606;2022-11-15T09:09:56;100024.28;;;3.24;41.91
74561;BME280;62979;55.720;37.606;2022-11-15T09:12:24;100029.50;;;3.27;42.30
74561;BME280;62979;55.720;37.606;2022-11-15T09:14:51;100021.75;;;3.27;42.15
74561;BME280;62979;55.720;37.606;2022-11-15T09:17:18;100019.25;;;3.36;42.15
74561;BME280;62979;55.720;37.606;2022-11-15T09:19:45;100022.56;;;3.23;42.22
74561;BME280;62979;55.720;37.606;2022-11-15T09:22:12;100013.09;;;3.24;42.13
74561;BME280;62979;55.720;37.606;2022-11-15T09:24:39;100010.44;;;3.19;42.35
74561;BME280;62979;55.720;37.606;2022-11-15T09:27:06;100002.56;;;3.05;42.39
74561;BME280;62979;55.720;37.606;2022-11-15T09:29:35;100008.72;;;3.15;42.44
74561;BME280;62979;55.720;37.606;2022-11-15T09:32:02;100006.97;;;3.14;42.37
74561;BME280;62979;55.720;37.606;2022-11-15T09:34:29;99962.03;;;2.99;42.26
74561;BME280;62979;55.720;37.606;2022-11-15T09:36:56;99995.75;;;3.13;42.43
74561;BME280;62979;55.720;37.606;2022-11-15T09:39:23;99997.53;;;3.19;42.28
74561;BME280;62979;55.720;37.606;2022-11-15T09:45:02;99999.16;;;3.09;42.49
74561;BME280;62979;55.720;37.606;2022-11-15T09:47:57;99993.19;;;3.16;42.54
74561;BME280;62979;55.720;37.606;2022-11-15T09:51:03;99999.22;;;3.17;42.54
74561;BME280;62979;55.720;37.606;2022-11-15T09:53:47;99995.75;;;3.10;42.60
74561;BME280;62979;55.720;37.606;2022-11-15T09:56:22;99991.28;;;2.95;42.89
74561;BME280;62979;55.720;37.606;2022-11-15T09:58:58;99991.31;;;2.98;42.99
74561;BME280;62979;55.720;37.606;2022-11-15T10:01:41;99995.63;;;3.01;42.99
74561;BME280;62979;55.720;37.606;2022-11-15T10:04:17;99983.56;;;3.02;43.14
74561;BME280;62979;55.720;37.606;2022-11-15T10:06:49;99987.19;;;3.17;43.03
74561;BME280;62979;55.720;37.606;2022-11-15T10:09:25;99994.16;;;3.26;42.86
74561;BME280;62979;55.720;37.606;2022-11-15T10:11:59;99974.22;;;3.10;42.87
74561;BME280;62979;55.720;37.606;2022-11-15T10:14:28;99982.94;;;3.24;42.58
74561;BME280;62979;55.720;37.606;2022-11-15T10:17:37;99977.75;;;3.21;42.69
74561;BME280;62979;55.720;37.606;2022-11-15T10:20:24;99977.75;;;3.21;43.09
74561;BME280;62979;55.720;37.606;2022-11-15T10:22:56;99952.66;;;3.08;43.24
74561;BME280;62979;55.720;37.606;2022-11-15T10:25:27;99950.13;;;3.17;42.84
74561;BME280;62979;55.720;37.606;2022-11-15T10:27:57;99946.78;;;3.26;42.98
74561;BME280;62979;55.720;37.606;2022-11-15T10:30:32;99936.44;;;3.26;43.21
74561;BME280;62979;55.720;37.606;2022-11-15T10:33:13;99939.88;;;3.23;43.25
74561;BME280;62979;55.720;37.606;2022-11-15T10:35:47;99940.72;;;3.20;42.98
74561;BME280;62979;55.720;37.606;2022-11-15T10:38:14;99943.16;;;3.07;43.22
74561;BME280;62979;55.720;37.606;2022-11-15T10:40:41;99930.22;;;3.07;43.48
74561;BME280;62979;55.720;37.606;2022-11-15T10:43:15;99933.75;;;3.13;43.11
74561;BME280;62979;55.720;37.606;2022-11-15T10:45:44;99922.56;;;3.13;43.11
74561;BME280;62979;55.720;37.606;2022-11-15T10:48:26;99924.25;;;3.11;43.05
74561;BME280;62979;55.720;37.606;2022-11-15T10:50:54;99917.38;;;3.10;43.33
74561;BME280;62979;55.720;37.606;2022-11-15T10:53:26;99885.31;;;2.91;43.39
74561;BME280;62979;55.720;37.606;2022-11-15T10:55:59;99919.88;;;3.04;43.54
74561;BME280;62979;55.720;37.606;2022-11-15T10:58:33;99916.38;;;2.98;43.82
74561;BME280;62979;55.720;37.606;2022-11-15T11:01:14;99905.13;;;2.90;43.99
74561;BME280;62979;55.720;37.606;2022-11-15T11:03:58;99889.63;;;2.95;43.90
74561;BME280;62979;55.720;37.606;2022-11-15T11:06:27;99900.09;;;3.09;43.92
74561;BME280;62979;55.720;37.606;2022-11-15T11:08:57;99909.69;;;3.17;43.69
74561;BME280;62979;55.720;37.606;2022-11-15T11:11:44;99895.88;;;3.18;43.32
74561;BME280;62979;55.720;37.606;2022-11-15T11:14:23;99900.22;;;3.21;43.44
74561;BME280;62979;55.720;37.606;2022-11-15T11:16:54;99888.13;;;3.17;43.92
74561;BME280;62979;55.720;37.606;2022-11-15T11:19:46;99887.31;;;3.19;43.79
74561;BME280;62979;55.720;37.606;2022-11-15T11:22:23;99891.63;;;3.24;43.83
74561;BME280;62979;55.720;37.606;2022-11-15T11:25:18;99885.56;;;3.18;43.61
74561;BME280;62979;55.720;37.606;2022-11-15T11:28:02;99875.25;;;3.23;43.67
74561;BME280;62979;55.720;37.606;2022-11-15T11:30:49;99881.31;;;3.25;43.55
74561;BME280;62979;55.720;37.606;2022-11-15T11:33:31;99885.59;;;3.23;43.95
74561;BME280;62979;55.720;37.606;2022-11-15T11:36:09;99869.22;;;3.19;44.10
74561;BME280;62979;55.720;37.606;2022-11-15T11:38:55;99881.22;;;3.13;44.59
74561;BME280;62979;55.720;37.606;2022-11-15T11:41:40;99868.25;;;3.11;44.67
74561;BME280;62979;55.720;37.606;2022-11-15T11:44:34;99862.16;;;3.02;45.19
74561;BME280;62979;55.720;37.606;2022-11-15T11:47:11;99867.34;;;3.05;45.86
74561;BME280;62979;55.720;37.606;2022-11-15T11:49:46;99861.16;;;2.86;46.89
74561;BME280;62979;55.720;37.606;2022-11-15T11:52:23;99864.69;;;2.97;47.04
74561;BME280;62979;55.720;37.606;2022-11-15T11:55:01;99863.78;;;2.92;48.38
74561;BME280;62979;55.720;37.606;2022-11-15T11:57:43;99865.50;;;2.91;47.25
74561;BME280;62979;55.720;37.606;2022-11-15T12:00:18;99848.28;;;2.89;47.71
74561;BME280;62979;55.720;37.606;2022-11-15T12:02:54;99844.00;;;2.91;46.79
74561;BME280;62979;55.720;37.606;2022-11-15T12:05:33;99861.22;;;2.92;47.38
74561;BME280;62979;55.720;37.606;2022-11-15T12:08:19;99854.16;;;2.74;47.86
74561;BME280;62979;55.720;37.606;2022-11-15T12:11:00;99865.41;;;2.82;47.69
74561;BME280;62979;55.720;37.606;2022-11-15T12:13:36;99851.66;;;2.83;48.37
74561;BME280;62979;55.720;37.606;2022-11-15T12:16:13;99852.53;;;2.85;48.54
74561;BME280;62979;55.720;37.606;2022-11-15T12:18:48;99832.66;;;2.73;49.06
74561;BME280;62979;55.720;37.606;2022-11-15T12:21:24;99827.34;;;2.60;50.10
74561;BME280;62979;55.720;37.606;2022-11-15T12:24:03;99827.34;;;2.63;50.20
74561;BME280;62979;55.720;37.606;2022-11-15T12:26:37;99836.81;;;2.62;50.86
74561;BME280;62979;55.720;37.606;2022-11-15T12:29:15;99828.16;;;2.55;50.89
74561;BME280;62979;55.720;37.606;2022-11-15T12:31:50;99829.84;;;2.53;51.21
74561;BME280;62979;55.720;37.606;2022-11-15T12:34:49;99835.06;;;2.56;51.51
74561;BME280;62979;55.720;37.606;2022-11-15T12:40:26;99825.53;;;2.52;52.42
74561;BME280;62979;55.720;37.606;2022-11-15T12:46:10;99819.56;;;2.56;52.47
74561;BME280;62979;55.720;37.606;2022-11-15T12:48:56;99815.19;;;2.49;52.89
74561;BME280;62979;55.720;37.606;2022-11-15T12:54:53;99801.31;;;2.38;53.44
74561;BME280;62979;55.720;37.606;2022-11-15T12:57:36;99804.78;;;2.43;53.74
74561;BME280;62979;55.720;37.606;2022-11-15T13:03:21;99797.03;;;2.40;54.55
74561;BME280;62979;55.720;37.606;2022-11-15T13:06:00;99808.81;;;2.17;55.80
74561;BME280;62979;55.720;37.606;2022-11-15T13:08:49;99764.91;;;2.12;56.29
74561;BME280;62979;55.720;37.606;2022-11-15T13:11:51;99790.03;;;2.28;56.86
74561;BME280;62979;55.720;37.606;2022-11-15T13:14:46;99785.78;;;2.32;56.83
74561;BME280;62979;55.720;37.606;2022-11-15T13:17:32;99772.81;;;2.27;57.54
74561;BME280;62979;55.720;37.606;2022-11-15T13:20:18;99771.06;;;2.25;57.25
74561;BME280;62979;55.720;37.606;2022-11-15T13:22:50;99759.03;;;2.25;57.86
74561;BME280;62979;55.720;37.606;2022-11-15T13:25:58;99764.25;;;2.30;58.47
74561;BME280;62979;55.720;37.606;2022-11-15T13:28:43;99758.19;;;2.28;58.74
74561;BME280;62979;55.720;37.606;2022-11-15T13:31:33;99753.91;;;2.30;58.92
74561;BME280;62979;55.720;37.606;2022-11-15T13:34:16;99764.25;;;2.30;59.12
74561;BME280;62979;55.720;37.606;2022-11-15T13:36:56;99758.19;;;2.25;59.04
74561;BME280;62979;55.720;37.606;2022-11-15T13:39:28;99755.53;;;2.20;58.72
74561;BME280;62979;55.720;37.606;2022-11-15T13:41:56;99751.88;;;2.00;58.79
74561;BME280;62979;55.720;37.606;2022-11-15T13:44:25;99751.72;;;1.84;59.76
74561;BME280;62979;55.720;37.606;2022-11-15T13:47:05;99754.25;;;1.83;60.39